GMTA

Cherif Al Idrissi Airport

Al Hoceima, Morocco
TAF GMTA 192300Z 2000/2106 VRB02KT 8000 SCT006 PROB40 TEMPO 2000/2008 2000 BR
Issued Valid From Valid To
Sep-19 @ 23:00 UTC
(2 hours ago)
Sep-20 @ 00:00 UTC
(58 minutes ago)
Sep-21 @ 06:00 UTC
(-1 days ago)
Sep-20 @ 00:00 to Sep-21 @ 06:00
TAF GMTA 192300Z 2000/2106 VRB02KT 8000 SCT006
Wind Visibility Clouds
Variable at 2 knots 7,998 meters
  • Scattered at 600' AGL
Temporary  (Probability 40%) Sep-20 @ 00:00 to Sep-20 @ 08:00
PROB40 TEMPO 2000/2008 2000 BR
Visibility Conditions
1,996 meters
  • Mist
TAF GMTA 192300Z 2000/2106 VRB02KT 8000 SCT006 PROB40 TEMPO 2000/2008 2000 BR
Issued Sep-19 @ 23:00 UTC
(2 hours ago)
Valid From Sep-20 @ 00:00 UTC
(58 minutes ago)
Valid To Sep-21 @ 06:00 UTC
(-1 days ago)
Sep-20 @ 00:00 - Sep-21 @ 06:00
Wind Visibility
Variable at 2 knots 7,998 meters
Clouds
  • Scattered at 600' AGL
Probability 40% Temporary Sep-20 @ 00:00 - Sep-20 @ 08:00
Conditions
  • Mist